Terminal Aerodrome Forecast
Issued by NWS

Home | Current Version | Previous Version | Text Only | Print | Product List | Glossary On
Versions: 1 2 3 4 5 6 7 8 9 10 11 12 13 14 15 16 17
000
FTAK31 PAJN 292340
TAFAPG
TAF
PAPG 292340Z 3000/3024 VRB05KT P6SM -SHRA FEW005 SCT035 OVC050
     FM300200 VRB03KT P6SM VCSH FEW035 OVC060
     FM300700 VRB03KT P6SM SCT025 OVC040
     FM301600 08005KT P6SM VCSH BKN050 OVC070
     FM301900 06009KT P6SM -RA BKN025 OVC050 WS020/13040KT=

USA.gov is the U.S. government's official web portal to all federal, state and local government web resources and services.